createdAt,value
2022-09-28T04:00:19.127Z,0.90
2022-09-28T04:03:21.670Z,1.10
2022-09-28T04:06:26.808Z,1.10
2022-09-28T04:09:29.194Z,1.00
2022-09-28T04:12:31.331Z,1.00
2022-09-28T04:15:33.601Z,1.00
2022-09-28T04:18:35.663Z,1.00
2022-09-28T04:21:38.189Z,1.12
2022-09-28T04:24:43.478Z,1.50
2022-09-28T04:28:04.298Z,1.00
2022-09-28T04:31:16.127Z,1.05
2022-09-28T04:34:21.514Z,1.20
2022-09-28T04:37:24.321Z,1.58
2022-09-28T04:40:26.909Z,1.40
2022-09-28T04:43:29.114Z,1.40
2022-09-28T04:46:32.317Z,1.40
2022-09-28T04:49:38.245Z,1.40
2022-09-28T04:52:40.924Z,1.42
2022-09-28T04:55:43.086Z,1.10
2022-09-28T04:58:50.322Z,1.30
2022-09-28T05:01:55.399Z,1.20
2022-09-28T05:04:59.287Z,1.40
2022-09-28T05:08:01.554Z,1.35
2022-09-28T05:11:07.453Z,1.17
2022-09-28T05:14:11.601Z,1.40
2022-09-28T05:17:15.050Z,1.43
2022-09-28T05:20:17.670Z,1.50
2022-09-28T05:23:20.061Z,1.40
2022-09-28T05:26:22.877Z,1.48
2022-09-28T05:29:27.168Z,1.75
2022-09-28T05:32:32.506Z,2.65
2022-09-28T05:35:34.885Z,2.87
2022-09-28T05:38:37.165Z,5.15
2022-09-28T05:41:39.546Z,3.62
2022-09-28T05:44:41.623Z,2.00
2022-09-28T05:47:46.070Z,1.65
2022-09-28T05:50:52.619Z,1.60
2022-09-28T05:53:56.523Z,1.37
2022-09-28T05:56:58.741Z,1.65
2022-09-28T06:00:04.828Z,1.37
2022-09-28T06:03:14.713Z,1.42
2022-09-28T06:06:17.146Z,1.50
2022-09-28T06:09:23.844Z,1.40
2022-09-28T06:12:28.674Z,1.95
2022-09-28T06:15:32.681Z,2.00
2022-09-28T06:18:35.380Z,2.75
2022-09-28T06:21:38.181Z,1.77
2022-09-28T06:24:41.289Z,2.50
2022-09-28T06:27:43.349Z,2.22
2022-09-28T06:30:45.811Z,1.52
2022-09-28T06:33:51.703Z,1.65
2022-09-28T06:36:53.998Z,1.58
2022-09-28T06:39:56.388Z,1.60
2022-09-28T06:43:00.689Z,1.30
2022-09-28T06:46:03.394Z,1.27
2022-09-28T06:49:09.186Z,1.05
2022-09-28T06:52:14.890Z,1.20
2022-09-28T06:55:18.632Z,1.40
2022-09-28T06:58:21.389Z,1.20
2022-09-28T07:01:24.811Z,1.00
2022-09-28T07:04:31.078Z,1.70
2022-09-28T07:07:34.545Z,1.30
2022-09-28T07:10:42.029Z,1.20
2022-09-28T07:13:50.911Z,0.77
2022-09-28T07:17:12.354Z,1.00
2022-09-28T07:20:19.213Z,1.35
2022-09-28T07:23:23.281Z,1.30
2022-09-28T07:26:33.146Z,0.93
2022-09-28T07:29:35.303Z,1.10
2022-09-28T07:32:40.231Z,1.20
2022-09-28T07:35:50.651Z,1.55
2022-09-28T07:38:53.001Z,0.90
2022-09-28T07:41:59.644Z,1.00
2022-09-28T07:45:06.878Z,0.93
2022-09-28T07:48:09.268Z,0.90
2022-09-28T07:51:12.656Z,1.20
2022-09-28T07:54:14.755Z,1.52
2022-09-28T07:57:19.405Z,1.02
2022-09-28T08:00:22.210Z,1.00
2022-09-28T08:03:24.801Z,1.20
2022-09-28T08:06:27.323Z,1.30
2022-09-28T08:09:29.946Z,1.20
2022-09-28T08:12:36.000Z,1.90
2022-09-28T08:15:38.438Z,1.83
2022-09-28T08:18:41.410Z,2.00
2022-09-28T08:21:46.392Z,2.03
2022-09-28T08:24:49.575Z,1.90
2022-09-28T08:27:52.631Z,1.77
2022-09-28T08:30:58.689Z,1.67
2022-09-28T08:34:02.978Z,1.70
2022-09-28T08:37:09.211Z,1.58
2022-09-28T08:40:19.027Z,1.73
2022-09-28T08:43:57.707Z,1.42
2022-09-28T08:47:05.754Z,2.00
2022-09-28T08:50:16.575Z,1.50
2022-09-28T08:54:00.826Z,2.37
2022-09-28T08:57:16.433Z,1.52
2022-09-28T09:03:37.693Z,1.60
2022-09-28T09:06:43.946Z,1.33
2022-09-28T09:10:20.715Z,1.33
2022-09-28T09:13:41.015Z,1.40
2022-09-28T09:17:13.853Z,2.00
2022-09-28T09:20:29.962Z,3.22
2022-09-28T09:23:43.159Z,1.70
2022-09-28T09:26:45.713Z,1.48
2022-09-28T09:30:23.889Z,2.30
2022-09-28T09:34:12.035Z,2.03
2022-09-28T09:37:30.058Z,1.50
2022-09-28T09:40:44.701Z,1.50
2022-09-28T09:44:03.084Z,1.37
2022-09-28T09:47:11.477Z,1.48
2022-09-28T09:50:35.267Z,1.50
2022-09-28T09:53:45.918Z,1.60
2022-09-28T09:57:03.634Z,1.50
2022-09-28T10:00:14.291Z,1.30
2022-09-28T10:03:39.049Z,1.40
2022-09-28T10:06:42.341Z,1.30
2022-09-28T10:09:48.225Z,1.48
2022-09-28T10:12:52.996Z,1.30
2022-09-28T10:15:56.240Z,1.25
2022-09-28T10:18:59.909Z,1.33
2022-09-28T10:22:15.909Z,1.33
2022-09-28T10:25:19.842Z,1.42
2022-09-28T10:28:32.938Z,1.42
2022-09-28T10:31:40.450Z,1.23
2022-09-28T10:34:45.450Z,1.27
2022-09-28T10:38:05.062Z,1.27
2022-09-28T10:41:13.507Z,1.17
2022-09-28T10:44:19.193Z,1.30
2022-09-28T10:47:26.506Z,1.00
2022-09-28T10:50:29.002Z,1.62
2022-09-28T10:53:34.731Z,1.23
2022-09-28T10:56:40.793Z,1.60
2022-09-28T10:59:43.810Z,1.50
2022-09-28T11:02:47.017Z,1.20
2022-09-28T11:06:02.505Z,1.65
2022-09-28T11:09:29.693Z,2.05
2022-09-28T11:12:43.039Z,2.30
2022-09-28T11:15:45.993Z,2.37
2022-09-28T11:18:49.464Z,2.78
2022-09-28T11:21:51.775Z,2.20
2022-09-28T11:25:18.159Z,2.00
2022-09-28T11:28:27.654Z,2.33
2022-09-28T11:31:31.460Z,2.67
2022-09-28T11:34:59.250Z,2.20
2022-09-28T11:38:25.454Z,2.12
2022-09-28T11:41:31.485Z,1.90
2022-09-28T11:44:48.221Z,2.23
2022-09-28T11:48:01.245Z,1.77
2022-09-28T11:51:29.293Z,1.80
2022-09-28T11:54:57.066Z,2.30
2022-09-28T11:58:35.097Z,1.77
2022-09-28T12:01:45.923Z,2.85
2022-09-28T12:04:55.270Z,1.80
2022-09-28T12:08:08.244Z,1.98
2022-09-28T12:11:20.482Z,1.77
2022-09-28T12:14:38.157Z,1.70
2022-09-28T12:17:46.164Z,2.20
2022-09-28T12:20:55.189Z,1.60
2022-09-28T12:24:22.897Z,1.00
2022-09-28T12:27:41.024Z,1.25
2022-09-28T12:30:45.176Z,1.17
2022-09-28T12:33:50.954Z,1.10
2022-09-28T12:37:10.630Z,1.20
2022-09-28T12:40:41.481Z,1.10
2022-09-28T12:44:09.864Z,1.17
2022-09-28T12:47:34.847Z,1.35
2022-09-28T12:50:55.989Z,1.60
2022-09-28T12:54:28.822Z,0.90
2022-09-28T12:57:38.021Z,0.88
2022-09-28T13:01:17.579Z,1.00
2022-09-28T13:05:08.986Z,1.20
2022-09-28T13:08:31.545Z,1.50
2022-09-28T13:12:05.177Z,1.30
2022-09-28T13:15:17.569Z,1.67
2022-09-28T13:18:37.273Z,0.98
2022-09-28T13:22:12.377Z,0.82
2022-09-28T13:25:18.261Z,1.00
2022-09-28T13:28:26.226Z,1.58
2022-09-28T13:31:34.949Z,2.45
2022-09-28T13:34:39.538Z,1.40
2022-09-28T13:37:41.892Z,1.30
2022-09-28T13:41:03.462Z,1.00
2022-09-28T13:44:12.619Z,1.08
2022-09-28T13:47:38.904Z,1.27
2022-09-28T13:51:23.544Z,1.20
2022-09-28T13:54:50.416Z,1.13
2022-09-28T13:57:58.680Z,1.20
2022-09-28T14:01:10.547Z,3.08
2022-09-28T14:04:25.106Z,1.65
2022-09-28T14:08:11.168Z,1.10
2022-09-28T14:11:34.166Z,2.03
2022-09-28T14:14:51.234Z,1.48
2022-09-28T14:18:08.369Z,1.23
2022-09-28T14:21:45.762Z,1.08
2022-09-28T14:25:04.209Z,2.08
2022-09-28T14:28:37.690Z,1.52
2022-09-28T14:31:43.554Z,1.60
2022-09-28T14:34:54.838Z,1.30
2022-09-28T14:38:24.766Z,1.15
2022-09-28T14:41:43.148Z,1.08
2022-09-28T14:45:06.599Z,1.20
2022-09-28T14:48:18.939Z,0.70
2022-09-28T14:51:41.118Z,0.90
2022-09-28T14:54:49.137Z,1.40
2022-09-28T14:57:55.077Z,1.48
2022-09-28T15:01:05.194Z,1.80
2022-09-28T15:04:12.673Z,1.35
2022-09-28T15:07:22.770Z,0.93
2022-09-28T15:10:33.405Z,0.90
2022-09-28T15:13:35.574Z,1.20
2022-09-28T15:16:38.074Z,1.37
2022-09-28T15:19:53.656Z,0.75
2022-09-28T15:25:59.314Z,1.12
2022-09-28T15:29:04.237Z,1.10
2022-09-28T15:32:06.649Z,1.20
